createdAt,value
2018-02-21T00:01:55.879Z,54.56
2018-02-21T00:04:59.071Z,54.37
2018-02-21T00:08:02.421Z,55.27
2018-02-21T00:11:05.727Z,56.00
2018-02-21T00:14:08.927Z,55.82
2018-02-21T00:17:12.184Z,55.48
2018-02-21T00:20:15.420Z,55.23
2018-02-21T00:23:18.732Z,55.64
2018-02-21T00:26:22.014Z,55.94
2018-02-21T00:29:25.322Z,56.04
2018-02-21T00:32:28.523Z,56.05
2018-02-21T00:35:31.794Z,56.63
2018-02-21T00:38:35.110Z,57.25
2018-02-21T00:41:38.338Z,57.52
2018-02-21T00:44:41.605Z,57.31
2018-02-21T00:47:44.853Z,57.14
2018-02-21T00:50:48.166Z,57.44
2018-02-21T00:53:51.438Z,57.96
2018-02-21T00:56:54.702Z,58.07
2018-02-21T00:59:58.014Z,57.93
2018-02-21T01:03:01.245Z,58.99
2018-02-21T01:06:04.427Z,58.50
2018-02-21T01:09:07.575Z,58.70
2018-02-21T01:12:10.715Z,59.61
2018-02-21T01:15:13.921Z,59.36
2018-02-21T01:18:17.289Z,58.71
2018-02-21T01:21:20.570Z,59.01
2018-02-21T01:24:23.725Z,58.83
2018-02-21T01:27:26.946Z,59.86
2018-02-21T01:30:30.326Z,59.66
2018-02-21T01:33:33.466Z,59.89
2018-02-21T01:36:36.684Z,60.05
2018-02-21T01:39:39.842Z,59.63
2018-02-21T01:42:43.029Z,60.15
2018-02-21T01:45:46.390Z,61.04
2018-02-21T01:48:49.558Z,61.22
2018-02-21T01:51:52.785Z,61.16
2018-02-21T01:54:56.166Z,60.97
2018-02-21T01:57:59.417Z,60.94
2018-02-21T02:01:02.654Z,60.54
2018-02-21T02:04:05.918Z,60.62
2018-02-21T02:07:09.148Z,60.97
2018-02-21T02:10:12.393Z,61.34
2018-02-21T02:13:15.781Z,61.41
2018-02-21T02:16:19.109Z,61.05
2018-02-21T02:19:22.510Z,60.56
2018-02-21T02:22:25.696Z,60.61
2018-02-21T02:25:29.151Z,61.49
2018-02-21T02:28:32.398Z,61.68
2018-02-21T02:31:35.716Z,61.63
2018-02-21T02:34:38.978Z,61.79
2018-02-21T02:37:42.261Z,62.11
2018-02-21T02:40:45.631Z,62.64
2018-02-21T02:43:48.877Z,63.32
2018-02-21T02:46:52.137Z,64.01
2018-02-21T02:49:55.393Z,63.67
2018-02-21T02:52:58.620Z,63.96
2018-02-21T02:56:01.859Z,64.20
2018-02-21T02:59:05.147Z,63.98
2018-02-21T03:02:08.502Z,63.95
2018-02-21T03:05:11.697Z,64.31
2018-02-21T03:08:14.956Z,64.02
2018-02-21T03:11:18.250Z,64.16
2018-02-21T03:14:21.542Z,63.99
2018-02-21T03:17:24.851Z,63.96
2018-02-21T03:20:28.146Z,64.22
2018-02-21T03:23:31.437Z,64.10
2018-02-21T03:26:34.660Z,63.88
2018-02-21T03:29:37.931Z,64.00
2018-02-21T03:32:41.266Z,63.90
2018-02-21T03:35:44.574Z,64.37
2018-02-21T03:38:47.916Z,63.83
2018-02-21T03:41:51.226Z,63.79
2018-02-21T03:44:54.449Z,63.85
2018-02-21T03:47:57.749Z,63.95
2018-02-21T03:51:01.034Z,64.55
2018-02-21T03:54:04.578Z,64.37
2018-02-21T03:57:07.769Z,64.04
2018-02-21T04:00:10.944Z,63.68
2018-02-21T04:03:14.139Z,63.69
2018-02-21T04:06:17.429Z,63.66
2018-02-21T04:09:20.670Z,63.63
2018-02-21T04:12:23.884Z,63.45
2018-02-21T04:15:27.126Z,63.66
2018-02-21T04:18:30.415Z,64.04
2018-02-21T04:21:33.629Z,64.45
2018-02-21T04:24:36.882Z,64.36
2018-02-21T04:27:40.135Z,64.07
2018-02-21T04:30:43.382Z,64.17
2018-02-21T04:33:46.790Z,64.32
2018-02-21T04:36:50.046Z,64.45
2018-02-21T04:39:53.232Z,64.54
2018-02-21T04:42:56.485Z,63.78
2018-02-21T04:45:59.714Z,64.05
2018-02-21T04:49:02.965Z,64.20
2018-02-21T04:52:06.263Z,64.59
2018-02-21T04:55:09.524Z,66.23
2018-02-21T04:58:12.757Z,66.96
2018-02-21T05:01:15.983Z,67.16
2018-02-21T05:04:19.250Z,67.07
2018-02-21T05:07:22.543Z,66.52
2018-02-21T05:10:25.797Z,66.96
2018-02-21T05:13:29.052Z,66.35
2018-02-21T05:16:32.272Z,66.85
2018-02-21T05:19:35.453Z,66.85
2018-02-21T05:22:38.835Z,66.92
2018-02-21T05:25:42.092Z,66.41
2018-02-21T05:28:45.368Z,66.48
2018-02-21T05:31:48.725Z,67.18
2018-02-21T05:34:51.990Z,66.95
2018-02-21T05:37:55.360Z,66.72
2018-02-21T05:40:58.568Z,66.30
2018-02-21T05:44:01.963Z,66.16
2018-02-21T05:47:05.429Z,66.23
2018-02-21T05:50:08.706Z,66.14
2018-02-21T05:53:11.893Z,65.91
2018-02-21T05:56:15.196Z,65.68
2018-02-21T05:59:18.382Z,66.05
2018-02-21T06:02:21.852Z,66.61
2018-02-21T06:05:25.095Z,66.64
2018-02-21T06:08:28.281Z,66.80
2018-02-21T06:11:31.532Z,66.11
2018-02-21T06:14:35.301Z,66.20
2018-02-21T06:17:38.574Z,66.32
2018-02-21T06:20:41.878Z,66.44
2018-02-21T06:23:45.189Z,66.51
2018-02-21T06:26:48.574Z,66.50
2018-02-21T06:29:51.873Z,66.94
2018-02-21T06:32:55.108Z,66.91
2018-02-21T06:35:58.381Z,66.96
2018-02-21T06:39:01.685Z,66.98
2018-02-21T06:42:04.933Z,67.08
2018-02-21T06:45:08.168Z,66.84
2018-02-21T06:48:11.451Z,66.71
2018-02-21T06:51:14.750Z,66.68
2018-02-21T06:54:18.148Z,67.29
2018-02-21T06:57:21.460Z,67.59
2018-02-21T07:00:24.683Z,67.84
2018-02-21T07:03:27.947Z,67.21
2018-02-21T07:06:31.250Z,67.31
2018-02-21T07:09:34.570Z,67.54
2018-02-21T07:12:37.873Z,67.62
2018-02-21T07:15:41.320Z,66.92
2018-02-21T07:18:44.656Z,66.74
2018-02-21T07:21:48.030Z,66.91
2018-02-21T07:24:51.364Z,66.72
2018-02-21T07:27:54.650Z,66.89
2018-02-21T07:30:58.530Z,66.93
2018-02-21T07:34:01.761Z,67.24
2018-02-21T07:37:05.008Z,67.06
2018-02-21T07:40:08.197Z,67.30
2018-02-21T07:43:11.447Z,67.23
2018-02-21T07:46:14.732Z,67.30
2018-02-21T07:49:18.126Z,66.56
2018-02-21T07:52:21.394Z,67.09
2018-02-21T07:55:24.706Z,67.26
2018-02-21T07:58:27.925Z,66.91
2018-02-21T08:01:31.230Z,66.75
2018-02-21T08:04:34.535Z,66.16
2018-02-21T08:07:37.720Z,65.83
2018-02-21T08:10:40.984Z,66.04
2018-02-21T08:13:44.315Z,65.64
2018-02-21T08:16:47.669Z,65.21
2018-02-21T08:19:50.918Z,65.00
2018-02-21T08:22:54.092Z,64.61
2018-02-21T08:25:57.411Z,64.06
2018-02-21T08:29:00.698Z,64.17
2018-02-21T08:32:04.022Z,64.79
2018-02-21T08:35:07.220Z,64.35
2018-02-21T08:38:10.485Z,64.06
2018-02-21T08:41:13.795Z,64.00
2018-02-21T08:44:17.063Z,64.32
2018-02-21T08:47:20.633Z,63.57
2018-02-21T08:50:24.354Z,63.10
2018-02-21T08:53:27.648Z,64.00
2018-02-21T08:56:30.883Z,63.34
2018-02-21T08:59:34.088Z,63.12
2018-02-21T09:02:37.407Z,62.79
2018-02-21T09:05:40.674Z,61.64
2018-02-21T09:08:43.971Z,61.79
2018-02-21T09:11:47.317Z,61.80
2018-02-21T09:14:50.572Z,61.53
2018-02-21T09:17:53.875Z,61.61
2018-02-21T09:20:57.218Z,61.69
2018-02-21T09:24:00.488Z,61.47
2018-02-21T09:27:03.695Z,61.47
2018-02-21T09:30:06.852Z,61.04
2018-02-21T09:33:10.138Z,61.88
2018-02-21T09:36:13.466Z,61.47
2018-02-21T09:39:17.170Z,61.90
2018-02-21T09:42:20.497Z,60.44
2018-02-21T09:45:23.654Z,60.02
2018-02-21T09:48:26.936Z,59.86
2018-02-21T09:51:30.299Z,60.25
2018-02-21T09:54:33.490Z,60.51
2018-02-21T09:57:36.774Z,59.85
2018-02-21T10:00:40.030Z,58.86
2018-02-21T10:03:43.200Z,58.83
2018-02-21T10:06:46.645Z,58.86
2018-02-21T10:09:49.939Z,58.48
2018-02-21T10:12:53.160Z,57.72
2018-02-21T10:15:56.432Z,56.15
2018-02-21T10:18:59.608Z,56.32
2018-02-21T10:22:02.745Z,55.14
2018-02-21T10:25:06.035Z,55.45
2018-02-21T10:28:09.321Z,54.85
2018-02-21T10:31:12.532Z,54.14
2018-02-21T10:34:15.831Z,54.62
2018-02-21T10:37:20.357Z,53.29
2018-02-21T10:40:23.645Z,53.42
2018-02-21T10:43:26.844Z,53.69
2018-02-21T10:46:30.107Z,51.49
2018-02-21T10:49:33.397Z,52.22
2018-02-21T10:52:36.656Z,51.91
2018-02-21T10:55:39.839Z,51.34
2018-02-21T10:58:43.033Z,51.47
2018-02-21T11:01:46.217Z,50.48
2018-02-21T11:04:49.527Z,48.53
2018-02-21T11:07:52.738Z,48.83
2018-02-21T11:10:56.050Z,47.84
2018-02-21T11:13:59.314Z,48.08
2018-02-21T11:17:02.513Z,48.57
2018-02-21T11:20:05.722Z,48.08
2018-02-21T11:23:08.958Z,49.16
2018-02-21T11:26:12.248Z,48.02
2018-02-21T11:29:15.560Z,48.49
2018-02-21T11:32:18.884Z,48.19
2018-02-21T11:35:22.144Z,47.77
2018-02-21T11:38:25.435Z,48.61
2018-02-21T11:41:29.059Z,46.67
2018-02-21T11:44:32.322Z,46.93
2018-02-21T11:47:35.598Z,46.35
2018-02-21T11:50:38.838Z,46.85
2018-02-21T11:53:42.078Z,45.38
2018-02-21T11:56:45.344Z,45.85
2018-02-21T11:59:48.621Z,45.58
2018-02-21T12:02:51.764Z,44.35
2018-02-21T12:05:55.005Z,44.52
2018-02-21T12:08:58.224Z,44.18
2018-02-21T12:12:01.406Z,44.40
2018-02-21T12:15:04.703Z,45.22
2018-02-21T12:18:08.007Z,45.40
2018-02-21T12:21:11.309Z,45.35
2018-02-21T12:24:14.506Z,44.07
2018-02-21T12:27:17.861Z,44.87
2018-02-21T12:30:21.100Z,44.12
2018-02-21T12:33:24.326Z,44.98
2018-02-21T12:36:27.603Z,44.67
2018-02-21T12:39:35.093Z,44.19
2018-02-21T12:42:38.392Z,43.76
2018-02-21T12:45:41.678Z,43.63
2018-02-21T12:48:45.120Z,44.06
2018-02-21T12:51:48.369Z,43.47
2018-02-21T12:54:51.681Z,43.31
2018-02-21T12:57:54.980Z,41.82
2018-02-21T13:00:58.681Z,41.91
2018-02-21T13:04:01.972Z,42.67
2018-02-21T13:07:05.217Z,42.12
2018-02-21T13:10:08.472Z,42.62
2018-02-21T13:13:11.787Z,40.91
2018-02-21T13:16:15.057Z,41.29
2018-02-21T13:19:18.429Z,41.71
2018-02-21T13:22:21.593Z,42.34
2018-02-21T13:25:24.828Z,41.44
2018-02-21T13:28:28.038Z,41.75
2018-02-21T13:31:31.361Z,40.66
2018-02-21T13:34:34.661Z,41.95
2018-02-21T13:37:37.857Z,41.84
2018-02-21T13:40:41.289Z,42.20
2018-02-21T13:43:44.472Z,42.24
2018-02-21T13:46:48.971Z,42.59
2018-02-21T13:49:52.318Z,41.92
2018-02-21T13:52:55.562Z,40.97
2018-02-21T13:55:58.905Z,41.39
2018-02-21T13:59:02.179Z,40.89
2018-02-21T14:02:06.172Z,39.84
2018-02-21T14:05:09.407Z,40.11
2018-02-21T14:08:12.652Z,39.23
2018-02-21T14:11:15.921Z,39.67
2018-02-21T14:14:19.376Z,39.75
2018-02-21T14:17:22.654Z,40.36
2018-02-21T14:20:26.014Z,40.90
2018-02-21T14:23:29.184Z,40.86
2018-02-21T14:26:32.442Z,40.00
2018-02-21T14:29:35.781Z,40.69
2018-02-21T14:32:39.202Z,38.77
2018-02-21T14:35:42.446Z,39.37
2018-02-21T14:38:45.603Z,40.54
2018-02-21T14:41:48.940Z,41.36
2018-02-21T14:44:52.132Z,41.16
2018-02-21T14:47:55.295Z,42.02
2018-02-21T14:50:58.580Z,42.15
2018-02-21T14:54:01.906Z,42.53
2018-02-21T14:57:05.174Z,42.32
2018-02-21T15:00:08.510Z,42.15
2018-02-21T15:03:11.803Z,42.04
2018-02-21T15:06:15.006Z,42.67
2018-02-21T15:09:18.541Z,43.04
2018-02-21T15:12:21.884Z,43.17
2018-02-21T15:15:25.092Z,43.46
2018-02-21T15:18:28.449Z,43.00
2018-02-21T15:21:31.618Z,43.05
2018-02-21T15:24:34.986Z,43.45
2018-02-21T15:27:38.260Z,43.27
2018-02-21T15:30:42.165Z,42.60
2018-02-21T15:33:45.467Z,42.15
2018-02-21T15:36:48.940Z,41.57
2018-02-21T15:39:52.280Z,41.41
2018-02-21T15:42:55.648Z,41.55
2018-02-21T15:45:58.906Z,42.30
2018-02-21T15:49:02.078Z,41.92
2018-02-21T15:52:05.329Z,40.61
2018-02-21T15:55:08.646Z,39.75
2018-02-21T15:58:11.906Z,39.94
2018-02-21T16:01:15.149Z,38.38
2018-02-21T16:04:18.457Z,36.34
2018-02-21T16:07:21.818Z,32.35
2018-02-21T16:10:25.001Z,32.00
2018-02-21T16:13:28.350Z,32.46
2018-02-21T16:16:31.550Z,31.23
2018-02-21T16:19:34.751Z,32.70
2018-02-21T16:22:38.053Z,32.57
2018-02-21T16:25:41.364Z,32.75
2018-02-21T16:28:44.693Z,33.46
2018-02-21T16:31:48.018Z,34.05
2018-02-21T16:34:51.247Z,34.93
2018-02-21T16:37:54.599Z,34.50
2018-02-21T16:40:57.916Z,34.82
2018-02-21T16:44:01.167Z,35.07
2018-02-21T16:47:04.516Z,34.99
2018-02-21T16:50:07.892Z,35.63
2018-02-21T16:53:11.189Z,37.31
2018-02-21T16:56:14.444Z,37.46
2018-02-21T16:59:17.866Z,38.02
2018-02-21T17:02:21.146Z,38.49
2018-02-21T17:05:24.645Z,38.91
2018-02-21T17:08:27.981Z,39.71
2018-02-21T17:11:31.181Z,39.64
2018-02-21T17:14:34.413Z,40.06
2018-02-21T17:17:37.743Z,40.88
2018-02-21T17:20:41.028Z,41.25
2018-02-21T17:23:44.361Z,41.54
2018-02-21T17:26:47.678Z,41.92
2018-02-21T17:29:50.893Z,41.39
2018-02-21T17:32:54.207Z,41.21
2018-02-21T17:35:57.535Z,41.98
2018-02-21T17:39:00.969Z,41.77
2018-02-21T17:42:04.129Z,42.10
2018-02-21T17:45:07.422Z,43.34
2018-02-21T17:48:10.701Z,44.25
2018-02-21T17:51:13.986Z,43.56
2018-02-21T17:54:17.411Z,43.46
2018-02-21T17:57:20.742Z,44.21
2018-02-21T18:00:23.996Z,44.22
2018-02-21T18:03:27.186Z,44.30
2018-02-21T18:06:30.451Z,44.60
2018-02-21T18:09:33.724Z,44.13
2018-02-21T18:12:37.005Z,43.46
2018-02-21T18:15:40.405Z,42.91
2018-02-21T18:18:43.696Z,40.95
2018-02-21T18:21:50.506Z,40.46
2018-02-21T18:24:53.757Z,40.07
2018-02-21T18:27:57.059Z,40.42
2018-02-21T18:31:00.333Z,40.43
2018-02-21T18:34:03.560Z,40.56
2018-02-21T18:37:06.833Z,40.74
2018-02-21T18:40:10.218Z,39.86
2018-02-21T18:43:13.548Z,40.94
2018-02-21T18:46:16.902Z,40.83
2018-02-21T18:49:20.152Z,40.58
2018-02-21T18:52:23.459Z,40.45
2018-02-21T18:55:26.884Z,41.21
2018-02-21T18:58:30.140Z,41.41
2018-02-21T19:01:33.360Z,41.50
2018-02-21T19:04:36.633Z,41.41
2018-02-21T19:07:39.830Z,41.99
2018-02-21T19:10:43.130Z,42.25
2018-02-21T19:13:46.475Z,42.00
2018-02-21T19:16:49.821Z,42.89
2018-02-21T19:19:53.125Z,42.92
2018-02-21T19:22:56.310Z,43.40
2018-02-21T19:25:59.625Z,43.76
2018-02-21T19:29:02.814Z,43.98
2018-02-21T19:32:06.021Z,44.21
2018-02-21T19:35:09.226Z,44.76
2018-02-21T19:38:12.493Z,45.12
2018-02-21T19:41:15.686Z,45.58
2018-02-21T19:44:19.062Z,45.97
2018-02-21T19:47:22.355Z,46.13
2018-02-21T19:50:25.583Z,46.06
2018-02-21T19:53:28.874Z,45.99
2018-02-21T19:56:32.122Z,45.88
2018-02-21T19:59:35.412Z,46.25
2018-02-21T20:02:38.640Z,47.22
2018-02-21T20:05:41.938Z,47.63
2018-02-21T20:08:45.262Z,47.98
2018-02-21T20:11:48.632Z,48.52
2018-02-21T20:14:52.726Z,48.26
2018-02-21T20:17:55.962Z,48.68
2018-02-21T20:20:59.272Z,49.16
2018-02-21T20:24:02.504Z,49.23
2018-02-21T20:27:05.718Z,49.06
2018-02-21T20:30:08.897Z,49.29
2018-02-21T20:33:12.134Z,49.57
2018-02-21T20:36:15.698Z,49.46
2018-02-21T20:46:47.872Z,50.03
2018-02-21T20:49:51.173Z,50.28
2018-02-21T20:52:54.609Z,49.99
2018-02-21T20:55:57.809Z,50.53
2018-02-21T20:59:01.062Z,50.68
2018-02-21T21:02:04.465Z,50.74
2018-02-21T21:05:07.982Z,50.68
2018-02-21T21:08:11.319Z,50.58
2018-02-21T21:11:14.549Z,50.76
2018-02-21T21:14:17.845Z,50.91
2018-02-21T21:17:21.147Z,50.72
2018-02-21T21:20:24.435Z,51.23
2018-02-21T21:23:27.753Z,51.32
2018-02-21T21:26:32.745Z,51.10
2018-02-21T21:29:36.595Z,50.98
2018-02-21T21:32:39.827Z,51.19
2018-02-21T21:35:43.085Z,51.87
2018-02-21T21:38:46.556Z,51.67
2018-02-21T21:41:49.795Z,52.11
2018-02-21T21:44:53.064Z,51.66
2018-02-21T21:47:56.394Z,51.98
2018-02-21T21:50:59.675Z,51.83
2018-02-21T21:54:02.904Z,51.58
2018-02-21T21:57:06.181Z,51.70
2018-02-21T22:00:09.474Z,51.80
2018-02-21T22:03:12.719Z,52.16
2018-02-21T22:06:15.938Z,51.97
2018-02-21T22:09:19.366Z,52.17
2018-02-21T22:12:22.624Z,52.04
2018-02-21T22:15:25.962Z,51.97
2018-02-21T22:18:29.241Z,52.88
2018-02-21T22:21:32.542Z,52.25
2018-02-21T22:24:37.446Z,52.55
2018-02-21T22:27:41.270Z,52.93
2018-02-21T22:30:45.114Z,53.27
2018-02-21T22:33:48.467Z,53.09
2018-02-21T22:36:51.703Z,53.14
2018-02-21T22:39:54.985Z,53.52
2018-02-21T22:42:58.299Z,53.38
2018-02-21T22:46:01.790Z,53.51
2018-02-21T22:49:05.102Z,53.62
2018-02-21T22:52:08.353Z,53.63
2018-02-21T22:55:11.615Z,53.49
2018-02-21T22:58:14.998Z,53.61
2018-02-21T23:01:18.353Z,53.52
2018-02-21T23:04:21.587Z,53.29
2018-02-21T23:07:24.882Z,53.76
2018-02-21T23:10:28.139Z,53.65
2018-02-21T23:13:31.409Z,54.05
2018-02-21T23:16:34.657Z,54.08
2018-02-21T23:19:37.987Z,53.97
2018-02-21T23:22:41.289Z,53.89
2018-02-21T23:25:44.926Z,53.65
2018-02-21T23:28:48.353Z,53.48
2018-02-21T23:31:52.118Z,53.46
2018-02-21T23:34:55.569Z,53.23
2018-02-21T23:37:59.043Z,53.63
2018-02-21T23:41:02.285Z,53.73
2018-02-21T23:44:05.532Z,53.79
2018-02-21T23:47:08.846Z,53.97
2018-02-21T23:50:12.123Z,53.97
2018-02-21T23:53:15.375Z,54.07
2018-02-21T23:56:18.830Z,54.27
2018-02-21T23:59:22.062Z,54.34
